KAL1234 RKSI-RKPC
Flight info
| Callsign | KAL1234 |
|---|---|
| Flight time | 0h 44m |
| Altitude | 34000 |
| Route | BOPTA2A BOPTA Z51 BEDES Y711 DOTOL DOTOL2M |
| Aircraft | B739/M-SDE2E3FGHIRWXY/LB1 |
Departure
| Time | 2026-05-04 13:00 |
|---|---|
| Airport | Incheon International Airport (RKSI) |
Arrival
| Time | 2026-05-04 13:45 |
|---|---|
| Airport | Jeju International Airport (RKPC) |
| Time | Latitude | Longitude | Altitude | Speed | Heading |
|---|---|---|---|---|---|
| 2026-05-04 12:33 | 37.44922 | 126.44647 | 29 ft | 0 kts | 35° |
| 2026-05-04 12:45 | 37.44917 | 126.44643 | 30 ft | 4 kts | 35° |
| 2026-05-04 12:46 | 37.44896 | 126.44624 | 30 ft | 4 kts | 35° |
| 2026-05-04 12:46 | 37.44873 | 126.44604 | 30 ft | 4 kts | 35° |
| 2026-05-04 12:46 | 37.44856 | 126.44588 | 30 ft | 4 kts | 25° |
| 2026-05-04 12:46 | 37.44833 | 126.44584 | 32 ft | 4 kts | 329° |
| 2026-05-04 12:47 | 37.44818 | 126.44602 | 32 ft | 4 kts | 314° |
| 2026-05-04 12:47 | 37.44797 | 126.44617 | 28 ft | 4 kts | 358° |
| 2026-05-04 12:47 | 37.44774 | 126.44616 | 30 ft | 4 kts | 12° |
| 2026-05-04 12:47 | 37.44748 | 126.44607 | 31 ft | 3 kts | 15° |
| 2026-05-04 12:48 | 37.44744 | 126.44605 | 30 ft | 0 kts | 15° |
| 2026-05-04 12:50 | 37.44747 | 126.44606 | 31 ft | 2 kts | 15° |
| 2026-05-04 12:50 | 37.44766 | 126.44612 | 30 ft | 3 kts | 12° |
| 2026-05-04 12:51 | 37.44787 | 126.44615 | 31 ft | 3 kts | 1° |
| 2026-05-04 12:51 | 37.44808 | 126.44608 | 30 ft | 4 kts | 330° |
| 2026-05-04 12:51 | 37.44827 | 126.44587 | 32 ft | 4 kts | 310° |
| 2026-05-04 12:51 | 37.44843 | 126.44560 | 28 ft | 4 kts | 306° |
| 2026-05-04 12:52 | 37.44855 | 126.44538 | 30 ft | 0 kts | 306° |
| 2026-05-04 12:52 | 37.44856 | 126.44537 | 30 ft | 1 kts | 306° |
| 2026-05-04 12:52 | 37.44871 | 126.44511 | 31 ft | 6 kts | 306° |
| 2026-05-04 12:52 | 37.44897 | 126.44466 | 30 ft | 7 kts | 306° |
| 2026-05-04 12:53 | 37.44928 | 126.44413 | 32 ft | 8 kts | 306° |
| 2026-05-04 12:53 | 37.44962 | 126.44353 | 32 ft | 9 kts | 305° |
| 2026-05-04 12:53 | 37.44999 | 126.44287 | 32 ft | 10 kts | 305° |
| 2026-05-04 12:53 | 37.45044 | 126.44218 | 32 ft | 10 kts | 317° |
| 2026-05-04 12:54 | 37.45092 | 126.44150 | 32 ft | 11 kts | 287° |
| 2026-05-04 12:54 | 37.45064 | 126.44062 | 32 ft | 11 kts | 234° |
| 2026-05-04 12:54 | 37.45050 | 126.44037 | 32 ft | 1 kts | 234° |
| 2026-05-04 12:54 | 37.45040 | 126.44024 | 32 ft | 3 kts | 219° |
| 2026-05-04 12:55 | 37.45016 | 126.44010 | 32 ft | 4 kts | 193° |
| 2026-05-04 12:55 | 37.44983 | 126.44024 | 31 ft | 6 kts | 149° |
| 2026-05-04 12:55 | 37.44945 | 126.44055 | 30 ft | 7 kts | 146° |
| 2026-05-04 12:55 | 37.44900 | 126.44096 | 32 ft | 9 kts | 144° |
| 2026-05-04 12:56 | 37.44846 | 126.44144 | 30 ft | 10 kts | 144° |
| 2026-05-04 12:56 | 37.44784 | 126.44200 | 30 ft | 12 kts | 144° |
| 2026-05-04 12:56 | 37.44714 | 126.44262 | 30 ft | 13 kts | 144° |
| 2026-05-04 12:56 | 37.44642 | 126.44326 | 30 ft | 13 kts | 144° |
| 2026-05-04 12:57 | 37.44566 | 126.44393 | 32 ft | 14 kts | 144° |
| 2026-05-04 12:57 | 37.44486 | 126.44399 | 32 ft | 12 kts | 224° |
| 2026-05-04 12:57 | 37.44467 | 126.44371 | 31 ft | 1 kts | 232° |
| 2026-05-04 12:57 | 37.44466 | 126.44369 | 31 ft | 0 kts | 232° |
| 2026-05-04 12:58 | 37.44466 | 126.44368 | 31 ft | 0 kts | 232° |
| 2026-05-04 12:58 | 37.44461 | 126.44361 | 31 ft | 2 kts | 232° |
| 2026-05-04 12:58 | 37.44449 | 126.44340 | 32 ft | 4 kts | 233° |
| 2026-05-04 12:59 | 37.44419 | 126.44288 | 32 ft | 10 kts | 234° |
| 2026-05-04 12:59 | 37.44379 | 126.44192 | 32 ft | 14 kts | 266° |
| 2026-05-04 12:59 | 37.44423 | 126.44103 | 32 ft | 0 kts | 322° |
| 2026-05-04 12:59 | 37.44537 | 126.43997 | 32 ft | 57 kts | 324° |
| 2026-05-04 13:00 | 37.45059 | 126.43536 | 30 ft | 126 kts | 324° |
| 2026-05-04 13:00 | 37.45915 | 126.42729 | 87 ft | 173 kts | 320° |
| 2026-05-04 13:00 | 37.46916 | 126.41773 | 586 ft | 191 kts | 320° |
| 2026-05-04 13:00 | 37.47992 | 126.40745 | 1308 ft | 195 kts | 313° |
| 2026-05-04 13:01 | 37.48834 | 126.39421 | 2131 ft | 195 kts | 306° |
| 2026-05-04 13:01 | 37.49679 | 126.38072 | 2717 ft | 198 kts | 306° |
| 2026-05-04 13:01 | 37.50296 | 126.36514 | 3261 ft | 202 kts | 285° |
| 2026-05-04 13:01 | 37.50491 | 126.34679 | 3574 ft | 221 kts | 274° |
| 2026-05-04 13:02 | 37.50528 | 126.32704 | 3995 ft | 229 kts | 272° |
| 2026-05-04 13:02 | 37.50554 | 126.30666 | 4483 ft | 239 kts | 272° |
| 2026-05-04 13:02 | 37.50592 | 126.28477 | 4790 ft | 258 kts | 272° |
| 2026-05-04 13:02 | 37.50638 | 126.26240 | 5493 ft | 259 kts | 272° |
| 2026-05-04 13:03 | 37.50690 | 126.23960 | 6221 ft | 262 kts | 272° |
| 2026-05-04 13:03 | 37.50739 | 126.21646 | 6869 ft | 267 kts | 270° |
| 2026-05-04 13:03 | 37.50327 | 126.19360 | 7468 ft | 274 kts | 242° |
| 2026-05-04 13:03 | 37.49056 | 126.17560 | 8104 ft | 281 kts | 216° |
| 2026-05-04 13:04 | 37.47274 | 126.16480 | 8735 ft | 288 kts | 202° |
| 2026-05-04 13:04 | 37.45379 | 126.15617 | 9359 ft | 292 kts | 201° |
| 2026-05-04 13:04 | 37.43443 | 126.14768 | 9987 ft | 297 kts | 196° |
| 2026-05-04 13:04 | 37.41354 | 126.14605 | 10345 ft | 313 kts | 169° |
| 2026-05-04 13:05 | 37.39356 | 126.15737 | 10491 ft | 331 kts | 140° |
| 2026-05-04 13:05 | 37.37709 | 126.17916 | 10662 ft | 349 kts | 129° |
| 2026-05-04 13:05 | 37.36129 | 126.20289 | 10802 ft | 367 kts | 129° |
| 2026-05-04 13:05 | 37.34435 | 126.22792 | 10979 ft | 383 kts | 130° |
| 2026-05-04 13:06 | 37.32671 | 126.25345 | 11408 ft | 389 kts | 130° |
| 2026-05-04 13:06 | 37.30879 | 126.27912 | 11984 ft | 391 kts | 131° |
| 2026-05-04 13:06 | 37.29080 | 126.30479 | 12581 ft | 393 kts | 131° |
| 2026-05-04 13:06 | 37.27268 | 126.33062 | 13135 ft | 395 kts | 131° |
| 2026-05-04 13:07 | 37.25442 | 126.35665 | 13686 ft | 398 kts | 131° |
| 2026-05-04 13:07 | 37.23609 | 126.38280 | 14181 ft | 401 kts | 131° |
| 2026-05-04 13:07 | 37.21757 | 126.40918 | 14657 ft | 403 kts | 131° |
| 2026-05-04 13:07 | 37.19847 | 126.43505 | 15123 ft | 406 kts | 139° |
| 2026-05-04 13:08 | 37.17463 | 126.45309 | 15551 ft | 409 kts | 159° |
| 2026-05-04 13:08 | 37.14779 | 126.46527 | 16026 ft | 412 kts | 160° |
| 2026-05-04 13:08 | 37.12082 | 126.47751 | 16079 ft | 413 kts | 160° |
| 2026-05-04 13:08 | 37.09396 | 126.48997 | 16090 ft | 412 kts | 159° |
| 2026-05-04 13:09 | 37.06707 | 126.50267 | 16098 ft | 412 kts | 159° |
| 2026-05-04 13:09 | 37.04021 | 126.51542 | 16100 ft | 414 kts | 159° |
| 2026-05-04 13:09 | 37.01282 | 126.52655 | 16097 ft | 415 kts | 165° |
| 2026-05-04 13:09 | 36.98483 | 126.53544 | 16108 ft | 415 kts | 166° |
| 2026-05-04 13:10 | 36.95704 | 126.54377 | 16130 ft | 418 kts | 166° |
| 2026-05-04 13:10 | 36.92868 | 126.55258 | 16495 ft | 421 kts | 166° |
| 2026-05-04 13:10 | 36.90038 | 126.56174 | 17079 ft | 420 kts | 165° |
| 2026-05-04 13:10 | 36.87204 | 126.57109 | 17564 ft | 422 kts | 165° |
| 2026-05-04 13:11 | 36.84360 | 126.58051 | 18023 ft | 424 kts | 165° |
| 2026-05-04 13:11 | 36.81510 | 126.58991 | 18546 ft | 424 kts | 165° |
| 2026-05-04 13:11 | 36.78647 | 126.59934 | 18907 ft | 427 kts | 165° |
| 2026-05-04 13:11 | 36.75758 | 126.60883 | 19266 ft | 431 kts | 165° |
| 2026-05-04 13:12 | 36.72847 | 126.61840 | 19654 ft | 433 kts | 165° |
| 2026-05-04 13:12 | 36.69928 | 126.62814 | 20043 ft | 435 kts | 165° |
| 2026-05-04 13:12 | 36.67001 | 126.63799 | 20430 ft | 438 kts | 165° |
| 2026-05-04 13:12 | 36.64089 | 126.64780 | 20794 ft | 440 kts | 165° |
| 2026-05-04 13:13 | 36.61122 | 126.65780 | 21162 ft | 442 kts | 165° |
| 2026-05-04 13:13 | 36.58149 | 126.66779 | 21559 ft | 444 kts | 165° |
| 2026-05-04 13:13 | 36.55157 | 126.67782 | 21916 ft | 447 kts | 165° |
| 2026-05-04 13:13 | 36.52146 | 126.68791 | 22122 ft | 450 kts | 165° |
| 2026-05-04 13:14 | 36.49099 | 126.69811 | 22108 ft | 456 kts | 165° |
| 2026-05-04 13:14 | 36.46015 | 126.70842 | 22111 ft | 460 kts | 165° |
| 2026-05-04 13:14 | 36.42931 | 126.71872 | 22090 ft | 458 kts | 165° |
| 2026-05-04 13:14 | 36.39857 | 126.72898 | 22094 ft | 456 kts | 165° |
| 2026-05-04 13:15 | 36.36795 | 126.73923 | 22104 ft | 456 kts | 165° |
| 2026-05-04 13:15 | 36.33779 | 126.74939 | 22106 ft | 456 kts | 166° |
| 2026-05-04 13:15 | 36.30714 | 126.75973 | 22098 ft | 456 kts | 165° |
| 2026-05-04 13:15 | 36.27654 | 126.77008 | 22103 ft | 456 kts | 165° |
| 2026-05-04 13:16 | 36.24587 | 126.78043 | 22101 ft | 457 kts | 165° |
| 2026-05-04 13:16 | 36.21518 | 126.79077 | 22109 ft | 458 kts | 165° |
| 2026-05-04 13:16 | 36.18448 | 126.80109 | 22114 ft | 458 kts | 166° |
| 2026-05-04 13:16 | 36.15327 | 126.80889 | 22108 ft | 457 kts | 175° |
| 2026-05-04 13:17 | 36.12164 | 126.81041 | 22114 ft | 454 kts | 185° |
| 2026-05-04 13:17 | 36.09022 | 126.80679 | 22127 ft | 454 kts | 188° |
| 2026-05-04 13:17 | 36.05923 | 126.80281 | 22116 ft | 454 kts | 187° |
| 2026-05-04 13:17 | 36.02775 | 126.79896 | 22131 ft | 455 kts | 187° |
| 2026-05-04 13:18 | 35.99621 | 126.79535 | 22128 ft | 455 kts | 187° |
| 2026-05-04 13:18 | 35.96465 | 126.79192 | 22127 ft | 455 kts | 187° |
| 2026-05-04 13:18 | 35.93316 | 126.78854 | 22132 ft | 455 kts | 187° |
| 2026-05-04 13:18 | 35.90165 | 126.78515 | 22131 ft | 454 kts | 187° |
| 2026-05-04 13:19 | 35.87018 | 126.78176 | 22133 ft | 454 kts | 187° |
| 2026-05-04 13:19 | 35.83874 | 126.77835 | 22117 ft | 453 kts | 187° |
| 2026-05-04 13:19 | 35.80735 | 126.77495 | 22116 ft | 453 kts | 187° |
| 2026-05-04 13:19 | 35.77646 | 126.77161 | 22107 ft | 452 kts | 187° |
| 2026-05-04 13:20 | 35.74511 | 126.76822 | 22117 ft | 452 kts | 187° |
| 2026-05-04 13:20 | 35.71380 | 126.76483 | 22120 ft | 451 kts | 187° |
| 2026-05-04 13:20 | 35.68254 | 126.76146 | 22120 ft | 451 kts | 187° |
| 2026-05-04 13:20 | 35.65128 | 126.75808 | 22123 ft | 451 kts | 187° |
| 2026-05-04 13:21 | 35.62006 | 126.75472 | 22124 ft | 451 kts | 187° |
| 2026-05-04 13:21 | 35.58873 | 126.75135 | 22105 ft | 451 kts | 188° |
| 2026-05-04 13:21 | 35.55754 | 126.74799 | 22114 ft | 450 kts | 188° |
| 2026-05-04 13:21 | 35.52635 | 126.74463 | 22121 ft | 450 kts | 187° |
| 2026-05-04 13:22 | 35.49512 | 126.74128 | 22121 ft | 450 kts | 187° |
| 2026-05-04 13:22 | 35.46436 | 126.73798 | 22121 ft | 451 kts | 187° |
| 2026-05-04 13:22 | 35.43308 | 126.73464 | 22126 ft | 451 kts | 187° |
| 2026-05-04 13:22 | 35.40178 | 126.73129 | 22119 ft | 451 kts | 187° |
| 2026-05-04 13:23 | 35.37056 | 126.72795 | 22113 ft | 451 kts | 188° |
| 2026-05-04 13:23 | 35.33932 | 126.72461 | 22116 ft | 451 kts | 187° |
| 2026-05-04 13:23 | 35.30801 | 126.72127 | 22119 ft | 451 kts | 187° |
| 2026-05-04 13:23 | 35.27677 | 126.71794 | 22122 ft | 450 kts | 187° |
| 2026-05-04 13:24 | 35.24557 | 126.71461 | 22123 ft | 450 kts | 188° |
| 2026-05-04 13:24 | 35.21437 | 126.71128 | 22131 ft | 450 kts | 187° |
| 2026-05-04 13:24 | 35.18363 | 126.70801 | 22113 ft | 450 kts | 188° |
| 2026-05-04 13:25 | 35.12140 | 126.70140 | 22122 ft | 449 kts | 188° |
| 2026-05-04 13:25 | 35.09029 | 126.69809 | 22124 ft | 448 kts | 188° |
| 2026-05-04 13:25 | 35.05925 | 126.69480 | 22125 ft | 448 kts | 188° |
| 2026-05-04 13:25 | 35.02815 | 126.69150 | 22127 ft | 448 kts | 188° |
| 2026-05-04 13:26 | 34.99715 | 126.68821 | 22126 ft | 448 kts | 188° |
| 2026-05-04 13:26 | 34.96606 | 126.68492 | 22113 ft | 447 kts | 188° |
| 2026-05-04 13:26 | 34.93578 | 126.68172 | 21827 ft | 437 kts | 188° |
| 2026-05-04 13:26 | 34.90592 | 126.67859 | 21564 ft | 424 kts | 188° |
| 2026-05-04 13:27 | 34.87693 | 126.67556 | 21297 ft | 412 kts | 188° |
| 2026-05-04 13:27 | 34.84875 | 126.67259 | 21034 ft | 402 kts | 188° |
| 2026-05-04 13:27 | 34.82110 | 126.66967 | 20776 ft | 395 kts | 188° |
| 2026-05-04 13:27 | 34.79375 | 126.66676 | 20531 ft | 396 kts | 188° |
| 2026-05-04 13:28 | 34.76624 | 126.66383 | 20299 ft | 399 kts | 188° |
| 2026-05-04 13:28 | 34.73848 | 126.66088 | 20054 ft | 401 kts | 188° |
| 2026-05-04 13:28 | 34.71079 | 126.65796 | 19806 ft | 398 kts | 188° |
| 2026-05-04 13:28 | 34.68325 | 126.65506 | 19572 ft | 396 kts | 188° |
| 2026-05-04 13:29 | 34.65621 | 126.65222 | 19331 ft | 394 kts | 188° |
| 2026-05-04 13:29 | 34.62891 | 126.64935 | 19100 ft | 393 kts | 187° |
| 2026-05-04 13:29 | 34.60172 | 126.64649 | 18853 ft | 392 kts | 188° |
| 2026-05-04 13:29 | 34.57456 | 126.64363 | 18617 ft | 391 kts | 188° |
| 2026-05-04 13:30 | 34.54748 | 126.64079 | 18379 ft | 391 kts | 188° |
| 2026-05-04 13:30 | 34.52044 | 126.63796 | 18113 ft | 390 kts | 188° |
| 2026-05-04 13:30 | 34.49337 | 126.63513 | 17851 ft | 390 kts | 188° |
| 2026-05-04 13:30 | 34.46639 | 126.63230 | 17596 ft | 389 kts | 188° |
| 2026-05-04 13:31 | 34.43943 | 126.62948 | 17328 ft | 389 kts | 188° |
| 2026-05-04 13:31 | 34.41251 | 126.62666 | 17070 ft | 387 kts | 188° |
| 2026-05-04 13:31 | 34.38613 | 126.62392 | 16636 ft | 384 kts | 188° |
| 2026-05-04 13:31 | 34.35963 | 126.62117 | 16176 ft | 380 kts | 188° |
| 2026-05-04 13:32 | 34.33339 | 126.61843 | 15696 ft | 377 kts | 188° |
| 2026-05-04 13:32 | 34.30732 | 126.61570 | 15220 ft | 375 kts | 188° |
| 2026-05-04 13:32 | 34.28143 | 126.61300 | 14747 ft | 372 kts | 188° |
| 2026-05-04 13:32 | 34.25567 | 126.61032 | 14312 ft | 370 kts | 188° |
| 2026-05-04 13:33 | 34.23023 | 126.60768 | 14200 ft | 364 kts | 188° |
| 2026-05-04 13:33 | 34.20535 | 126.60511 | 14150 ft | 352 kts | 188° |
| 2026-05-04 13:33 | 34.18150 | 126.60265 | 14134 ft | 337 kts | 188° |
| 2026-05-04 13:33 | 34.15857 | 126.60028 | 14017 ft | 326 kts | 188° |
| 2026-05-04 13:34 | 34.13614 | 126.59797 | 13706 ft | 321 kts | 188° |
| 2026-05-04 13:34 | 34.11419 | 126.59565 | 13235 ft | 322 kts | 188° |
| 2026-05-04 13:34 | 34.09140 | 126.59322 | 12276 ft | 338 kts | 188° |
| 2026-05-04 13:34 | 34.06754 | 126.59071 | 11584 ft | 346 kts | 187° |
| 2026-05-04 13:35 | 34.04390 | 126.58837 | 11467 ft | 334 kts | 185° |
| 2026-05-04 13:35 | 33.99859 | 126.59839 | 10954 ft | 326 kts | 162° |
| 2026-05-04 13:35 | 33.97775 | 126.60792 | 10863 ft | 315 kts | 161° |
| 2026-05-04 13:36 | 33.95778 | 126.61753 | 10777 ft | 303 kts | 160° |
| 2026-05-04 13:36 | 33.93854 | 126.62681 | 10671 ft | 293 kts | 160° |
| 2026-05-04 13:36 | 33.91999 | 126.63565 | 10409 ft | 290 kts | 161° |
| 2026-05-04 13:36 | 33.90120 | 126.64450 | 10081 ft | 290 kts | 161° |
| 2026-05-04 13:37 | 33.88249 | 126.65325 | 9731 ft | 288 kts | 161° |
| 2026-05-04 13:37 | 33.86383 | 126.66193 | 9429 ft | 286 kts | 161° |
| 2026-05-04 13:37 | 33.84533 | 126.67052 | 9111 ft | 284 kts | 161° |
| 2026-05-04 13:37 | 33.83315 | 126.67616 | 8886 ft | 283 kts | 161° |
| 2026-05-04 13:38 | 33.80875 | 126.68744 | 8425 ft | 278 kts | 160° |
| 2026-05-04 13:38 | 33.79071 | 126.69577 | 7951 ft | 278 kts | 160° |
| 2026-05-04 13:38 | 33.77274 | 126.70406 | 7514 ft | 276 kts | 160° |
| 2026-05-04 13:38 | 33.75489 | 126.71230 | 7094 ft | 273 kts | 160° |
| 2026-05-04 13:39 | 33.73749 | 126.72032 | 6916 ft | 260 kts | 160° |
| 2026-05-04 13:39 | 33.72106 | 126.72790 | 6547 ft | 257 kts | 160° |
| 2026-05-04 13:39 | 33.70439 | 126.73557 | 6149 ft | 254 kts | 160° |
| 2026-05-04 13:39 | 33.68818 | 126.74302 | 5837 ft | 247 kts | 160° |
| 2026-05-04 13:40 | 33.67226 | 126.75028 | 5474 ft | 243 kts | 162° |
| 2026-05-04 13:40 | 33.65530 | 126.75187 | 4747 ft | 249 kts | 200° |
| 2026-05-04 13:40 | 33.64210 | 126.74076 | 4704 ft | 226 kts | 233° |
| 2026-05-04 13:40 | 33.63280 | 126.72538 | 4394 ft | 229 kts | 237° |
| 2026-05-04 13:41 | 33.62399 | 126.70935 | 4082 ft | 231 kts | 240° |
| 2026-05-04 13:41 | 33.61544 | 126.69297 | 3777 ft | 231 kts | 239° |
| 2026-05-04 13:41 | 33.60695 | 126.67657 | 3478 ft | 231 kts | 240° |
| 2026-05-04 13:42 | 33.59023 | 126.64409 | 2839 ft | 227 kts | 240° |
| 2026-05-04 13:42 | 33.58204 | 126.62820 | 2552 ft | 222 kts | 239° |
| 2026-05-04 13:42 | 33.57399 | 126.61257 | 2266 ft | 218 kts | 240° |
| 2026-05-04 13:42 | 33.56620 | 126.59744 | 1953 ft | 207 kts | 239° |
| 2026-05-04 13:43 | 33.55895 | 126.58335 | 1714 ft | 190 kts | 238° |
| 2026-05-04 13:43 | 33.55233 | 126.57047 | 1472 ft | 176 kts | 238° |
| 2026-05-04 13:43 | 33.54590 | 126.55797 | 1319 ft | 174 kts | 237° |
| 2026-05-04 13:43 | 33.53979 | 126.54612 | 1070 ft | 156 kts | 238° |
| 2026-05-04 13:44 | 33.53443 | 126.53563 | 846 ft | 143 kts | 238° |
| 2026-05-04 13:44 | 33.52916 | 126.52548 | 676 ft | 147 kts | 238° |
| 2026-05-04 13:44 | 33.52376 | 126.51490 | 482 ft | 151 kts | 238° |
| 2026-05-04 13:44 | 33.51824 | 126.50420 | 271 ft | 151 kts | 237° |
| 2026-05-04 13:45 | 33.51277 | 126.49361 | 86 ft | 144 kts | 236° |
| 2026-05-04 13:45 | 33.50874 | 126.48563 | 90 ft | 80 kts | 239° |
| 2026-05-04 13:45 | 33.50690 | 126.48217 | 90 ft | 28 kts | 221° |
| 2026-05-04 13:45 | 33.50550 | 126.48164 | 92 ft | 17 kts | 179° |
| 2026-05-04 13:46 | 33.50530 | 126.48276 | 91 ft | 17 kts | 61° |
| 2026-05-04 13:46 | 33.50590 | 126.48393 | 92 ft | 16 kts | 58° |
| 2026-05-04 13:46 | 33.50612 | 126.48510 | 91 ft | 15 kts | 131° |
| 2026-05-04 13:46 | 33.50534 | 126.48592 | 89 ft | 15 kts | 111° |
| 2026-05-04 13:47 | 33.50569 | 126.48700 | 89 ft | 14 kts | 59° |
| 2026-05-04 13:47 | 33.50620 | 126.48798 | 90 ft | 14 kts | 58° |
| 2026-05-04 13:47 | 33.50669 | 126.48893 | 90 ft | 13 kts | 58° |
| 2026-05-04 13:47 | 33.50715 | 126.48984 | 90 ft | 13 kts | 58° |
| 2026-05-04 13:48 | 33.50761 | 126.49073 | 90 ft | 12 kts | 58° |
| 2026-05-04 13:48 | 33.50805 | 126.49159 | 92 ft | 12 kts | 58° |
| 2026-05-04 13:48 | 33.50849 | 126.49244 | 89 ft | 12 kts | 59° |
| 2026-05-04 13:48 | 33.50891 | 126.49326 | 91 ft | 11 kts | 58° |
| 2026-05-04 13:49 | 33.50931 | 126.49407 | 91 ft | 11 kts | 68° |
| 2026-05-04 13:49 | 33.50939 | 126.49496 | 92 ft | 11 kts | 94° |
| 2026-05-04 13:49 | 33.50910 | 126.49571 | 94 ft | 11 kts | 161° |
| 2026-05-04 13:49 | 33.50840 | 126.49557 | 96 ft | 10 kts | 198° |
| 2026-05-04 13:50 | 33.50809 | 126.49545 | 95 ft | 0 kts | 198° |
| 2026-05-04 13:50 | 33.50805 | 126.49544 | 95 ft | 1 kts | 198° |
| 2026-05-04 13:50 | 33.50802 | 126.49543 | 96 ft | 0 kts | 198° |